createdAt,value
2018-05-07T00:00:19.808Z,15.60
2018-05-07T00:01:19.940Z,15.52
2018-05-07T00:02:20.080Z,15.50
2018-05-07T00:03:20.216Z,15.56
2018-05-07T00:04:20.357Z,15.56
2018-05-07T00:05:20.509Z,15.43
2018-05-07T00:06:20.646Z,15.14
2018-05-07T00:07:20.789Z,15.20
2018-05-07T00:08:21.024Z,15.33
2018-05-07T00:09:21.046Z,15.33
2018-05-07T00:10:21.217Z,15.43
2018-05-07T00:11:21.324Z,15.51
2018-05-07T00:12:21.466Z,15.50
2018-05-07T00:13:21.601Z,15.52
2018-05-07T00:14:21.742Z,15.59
2018-05-07T00:15:21.893Z,15.62
2018-05-07T00:16:22.033Z,15.62
2018-05-07T00:17:22.166Z,15.48
2018-05-07T00:18:22.304Z,15.51
2018-05-07T00:19:22.447Z,15.58
2018-05-07T00:20:22.587Z,15.56
2018-05-07T00:21:22.724Z,15.54
2018-05-07T00:22:22.937Z,15.45
2018-05-07T00:23:23.008Z,15.47
2018-05-07T00:24:23.135Z,15.43
2018-05-07T00:25:23.273Z,15.50
2018-05-07T00:26:23.414Z,15.43
2018-05-07T00:27:23.614Z,15.43
2018-05-07T00:28:23.728Z,15.43
2018-05-07T00:29:23.780Z,15.23
2018-05-07T00:30:23.923Z,15.38
2018-05-07T00:31:24.066Z,15.32
2018-05-07T00:32:24.201Z,15.41
2018-05-07T00:33:24.342Z,15.35
2018-05-07T00:34:24.485Z,15.22
2018-05-07T00:35:24.620Z,15.11
2018-05-07T00:36:24.758Z,15.05
2018-05-07T00:37:24.897Z,15.04
2018-05-07T00:38:25.036Z,15.03
2018-05-07T00:39:25.198Z,15.01
2018-05-07T00:40:25.316Z,14.99
2018-05-07T00:41:25.452Z,15.01
2018-05-07T00:42:25.595Z,15.01
2018-05-07T00:43:25.726Z,14.99
2018-05-07T00:44:25.865Z,14.93
2018-05-07T00:45:25.999Z,15.15
2018-05-07T00:46:26.135Z,15.08
2018-05-07T00:47:26.272Z,15.08
2018-05-07T00:48:26.411Z,15.20
2018-05-07T00:49:26.549Z,15.17
2018-05-07T00:50:26.684Z,15.19
2018-05-07T00:51:26.821Z,15.17
2018-05-07T00:52:26.969Z,14.95
2018-05-07T00:53:27.103Z,15.05
2018-05-07T00:54:27.246Z,15.01
2018-05-07T00:55:27.380Z,14.85
2018-05-07T00:56:27.572Z,14.96
2018-05-07T00:57:27.711Z,14.93
2018-05-07T00:58:27.847Z,14.97
2018-05-07T00:59:27.991Z,14.90
2018-05-07T01:00:28.131Z,15.07
2018-05-07T01:01:28.272Z,14.95
2018-05-07T01:02:28.410Z,15.03
2018-05-07T01:03:28.545Z,15.08
2018-05-07T01:04:28.681Z,15.05
2018-05-07T01:05:28.816Z,15.10
2018-05-07T01:06:28.950Z,15.05
2018-05-07T01:07:29.090Z,15.17
2018-05-07T01:08:29.226Z,15.22
2018-05-07T01:09:29.367Z,15.15
2018-05-07T01:10:29.511Z,15.23
2018-05-07T01:11:29.641Z,15.26
2018-05-07T01:12:29.782Z,15.27
2018-05-07T01:13:29.917Z,15.32
2018-05-07T01:14:30.056Z,15.27
2018-05-07T01:15:30.187Z,15.26
2018-05-07T01:16:30.326Z,15.27
2018-05-07T01:17:30.458Z,15.29
2018-05-07T01:18:30.605Z,15.32
2018-05-07T01:19:30.742Z,15.36
2018-05-07T01:20:30.879Z,15.27
2018-05-07T01:21:31.022Z,15.40
2018-05-07T01:22:31.152Z,15.36
2018-05-07T01:23:31.293Z,15.35
2018-05-07T01:24:31.441Z,15.29
2018-05-07T01:25:31.584Z,15.32
2018-05-07T01:26:31.719Z,15.32
2018-05-07T01:27:31.854Z,15.40
2018-05-07T01:28:32.009Z,15.35
2018-05-07T01:29:32.144Z,15.32
2018-05-07T01:30:32.279Z,15.29
2018-05-07T01:31:32.419Z,15.25
2018-05-07T01:32:32.554Z,15.25
2018-05-07T01:33:32.694Z,15.22
2018-05-07T01:34:32.828Z,15.03
2018-05-07T01:35:32.973Z,14.97
2018-05-07T01:36:33.107Z,14.83
2018-05-07T01:37:33.246Z,14.85
2018-05-07T01:38:33.381Z,14.82
2018-05-07T01:39:33.521Z,14.48
2018-05-07T01:40:33.745Z,14.52
2018-05-07T01:41:33.764Z,14.44
2018-05-07T01:42:33.901Z,14.51
2018-05-07T01:43:34.033Z,14.49
2018-05-07T01:44:34.183Z,14.48
2018-05-07T01:45:34.313Z,14.51
2018-05-07T01:46:34.457Z,14.53
2018-05-07T01:47:34.594Z,14.46
2018-05-07T01:48:34.731Z,14.49
2018-05-07T01:49:34.872Z,14.48
2018-05-07T01:50:35.019Z,14.51
2018-05-07T01:51:35.153Z,14.58
2018-05-07T01:52:35.293Z,14.61
2018-05-07T01:53:35.435Z,14.61
2018-05-07T01:54:35.566Z,14.67
2018-05-07T01:55:35.700Z,14.64
2018-05-07T01:56:35.842Z,14.79
2018-05-07T01:57:35.975Z,14.74
2018-05-07T01:58:36.112Z,14.73
2018-05-07T01:59:36.257Z,14.78
2018-05-07T02:00:36.392Z,14.78
2018-05-07T02:01:36.537Z,14.74
2018-05-07T02:02:36.675Z,14.83
2018-05-07T02:03:36.811Z,14.78
2018-05-07T02:04:36.950Z,14.73
2018-05-07T02:05:37.091Z,14.85
2018-05-07T02:06:37.231Z,14.73
2018-05-07T02:07:37.363Z,14.71
2018-05-07T02:08:37.503Z,14.73
2018-05-07T02:09:37.651Z,14.71
2018-05-07T02:10:37.795Z,14.74
2018-05-07T02:11:37.925Z,14.77
2018-05-07T02:12:38.916Z,14.67
2018-05-07T02:13:38.189Z,14.66
2018-05-07T02:14:38.335Z,14.66
2018-05-07T02:15:38.471Z,14.55
2018-05-07T02:16:38.607Z,14.66
2018-05-07T02:17:38.749Z,14.59
2018-05-07T02:18:38.887Z,14.63
2018-05-07T02:19:39.027Z,14.63
2018-05-07T02:20:39.167Z,14.59
2018-05-07T02:21:39.305Z,14.51
2018-05-07T02:22:39.442Z,14.66
2018-05-07T02:23:39.583Z,14.53
2018-05-07T02:24:39.717Z,14.53
2018-05-07T02:25:39.852Z,14.48
2018-05-07T02:26:39.992Z,14.44
2018-05-07T02:27:40.129Z,14.44
2018-05-07T02:28:40.256Z,14.46
2018-05-07T02:29:40.394Z,14.44
2018-05-07T02:30:40.535Z,14.45
2018-05-07T02:31:40.668Z,14.55
2018-05-07T02:32:40.804Z,14.55
2018-05-07T02:33:40.946Z,14.52
2018-05-07T02:34:41.084Z,14.40
2018-05-07T02:35:41.222Z,14.36
2018-05-07T02:36:41.363Z,14.41
2018-05-07T02:37:41.523Z,14.48
2018-05-07T02:38:41.670Z,14.46
2018-05-07T02:39:41.805Z,14.45
2018-05-07T02:40:42.045Z,14.28
2018-05-07T02:41:42.077Z,14.46
2018-05-07T02:42:42.214Z,14.40
2018-05-07T02:43:42.352Z,14.34
2018-05-07T02:44:42.491Z,14.31
2018-05-07T02:45:42.631Z,14.27
2018-05-07T02:46:42.765Z,14.26
2018-05-07T02:47:42.904Z,14.18
2018-05-07T02:48:43.042Z,14.16
2018-05-07T02:49:43.176Z,14.13
2018-05-07T02:50:43.928Z,14.03
2018-05-07T02:51:43.462Z,13.82
2018-05-07T02:52:43.605Z,13.85
2018-05-07T02:53:43.743Z,13.72
2018-05-07T02:54:43.882Z,13.61
2018-05-07T02:55:44.021Z,13.72
2018-05-07T02:56:44.159Z,13.68
2018-05-07T02:57:44.299Z,13.64
2018-05-07T02:58:44.439Z,13.71
2018-05-07T02:59:44.580Z,13.72
2018-05-07T03:00:44.722Z,13.65
2018-05-07T03:01:44.855Z,13.72
2018-05-07T03:02:45.000Z,13.64
2018-05-07T03:03:45.138Z,13.76
2018-05-07T03:04:45.278Z,13.71
2018-05-07T03:05:45.453Z,13.75
2018-05-07T03:06:45.589Z,13.73
2018-05-07T03:07:45.765Z,13.67
2018-05-07T03:08:45.867Z,13.63
2018-05-07T03:09:46.004Z,13.73
2018-05-07T03:10:46.137Z,13.79
2018-05-07T03:11:46.270Z,13.78
2018-05-07T03:12:46.408Z,13.90
2018-05-07T03:13:46.547Z,13.78
2018-05-07T03:14:46.677Z,13.67
2018-05-07T03:15:46.817Z,13.75
2018-05-07T03:16:46.955Z,13.67
2018-05-07T03:17:47.089Z,13.65
2018-05-07T03:18:47.224Z,13.65
2018-05-07T03:19:47.362Z,13.71
2018-05-07T03:20:47.495Z,13.65
2018-05-07T03:21:47.634Z,13.63
2018-05-07T03:22:47.777Z,13.63
2018-05-07T03:23:47.917Z,13.65
2018-05-07T03:24:48.063Z,13.58
2018-05-07T03:25:48.201Z,13.64
2018-05-07T03:26:48.342Z,13.65
2018-05-07T03:27:48.477Z,13.53
2018-05-07T03:28:48.612Z,13.54
2018-05-07T03:29:48.750Z,13.49
2018-05-07T03:30:48.890Z,13.51
2018-05-07T03:31:49.032Z,13.60
2018-05-07T03:32:49.166Z,13.47
2018-05-07T03:33:49.305Z,13.57
2018-05-07T03:34:49.445Z,13.67
2018-05-07T03:35:49.584Z,13.57
2018-05-07T03:36:49.723Z,13.64
2018-05-07T03:37:49.863Z,13.60
2018-05-07T03:38:50.004Z,13.58
2018-05-07T03:39:50.142Z,13.49
2018-05-07T03:40:50.279Z,13.43
2018-05-07T03:41:50.423Z,13.38
2018-05-07T03:42:50.558Z,13.21
2018-05-07T03:43:50.705Z,13.19
2018-05-07T03:44:50.837Z,13.26
2018-05-07T03:45:50.984Z,13.24
2018-05-07T03:46:51.122Z,13.32
2018-05-07T03:47:51.264Z,13.30
2018-05-07T03:48:51.411Z,13.42
2018-05-07T03:49:51.536Z,13.45
2018-05-07T03:50:51.669Z,13.40
2018-05-07T03:51:51.808Z,13.47
2018-05-07T03:52:51.945Z,13.35
2018-05-07T03:53:52.078Z,13.47
2018-05-07T03:54:52.218Z,13.40
2018-05-07T03:55:52.360Z,13.53
2018-05-07T03:56:52.495Z,13.45
2018-05-07T03:57:52.640Z,13.36
2018-05-07T03:58:52.765Z,13.51
2018-05-07T03:59:52.912Z,13.43
2018-05-07T04:00:53.051Z,13.46
2018-05-07T04:01:53.192Z,13.46
2018-05-07T04:02:53.323Z,13.46
2018-05-07T04:03:53.465Z,13.45
2018-05-07T04:04:53.605Z,13.45
2018-05-07T04:05:53.737Z,13.39
2018-05-07T04:06:53.890Z,13.39
2018-05-07T04:07:54.024Z,13.39
2018-05-07T04:08:54.166Z,13.47
2018-05-07T04:09:54.296Z,13.39
2018-05-07T04:10:54.433Z,13.38
2018-05-07T04:11:54.571Z,13.39
2018-05-07T04:12:54.707Z,13.51
2018-05-07T04:13:54.846Z,13.42
2018-05-07T04:14:54.989Z,13.38
2018-05-07T04:15:55.119Z,13.35
2018-05-07T04:16:55.256Z,13.39
2018-05-07T04:17:55.397Z,13.29
2018-05-07T04:18:55.537Z,13.26
2018-05-07T04:19:55.673Z,13.36
2018-05-07T04:20:55.809Z,13.30
2018-05-07T04:21:55.951Z,13.39
2018-05-07T04:22:56.089Z,13.38
2018-05-07T04:23:56.226Z,13.38
2018-05-07T04:24:56.362Z,13.38
2018-05-07T04:25:56.494Z,13.32
2018-05-07T04:26:56.629Z,13.38
2018-05-07T04:27:56.769Z,13.38
2018-05-07T04:28:56.908Z,13.40
2018-05-07T04:29:57.045Z,13.27
2018-05-07T04:30:57.181Z,13.42
2018-05-07T04:31:57.313Z,13.29
2018-05-07T04:32:57.448Z,13.42
2018-05-07T04:33:57.586Z,13.40
2018-05-07T04:34:57.732Z,13.51
2018-05-07T04:35:58.428Z,13.39
2018-05-07T04:36:57.975Z,13.47
2018-05-07T04:37:58.101Z,13.45
2018-05-07T04:38:58.245Z,13.43
2018-05-07T04:39:58.379Z,13.49
2018-05-07T04:40:58.523Z,13.53
2018-05-07T04:41:58.695Z,13.45
2018-05-07T04:42:58.798Z,13.46
2018-05-07T04:43:58.938Z,13.53
2018-05-07T04:44:59.074Z,13.43
2018-05-07T04:45:59.214Z,13.42
2018-05-07T04:46:59.353Z,13.45
2018-05-07T04:47:59.492Z,13.51
2018-05-07T04:48:59.634Z,13.54
2018-05-07T04:49:59.770Z,13.57
2018-05-07T04:50:59.909Z,13.49
2018-05-07T04:52:00.052Z,13.55
2018-05-07T04:53:00.187Z,13.58
2018-05-07T04:54:00.323Z,13.64
2018-05-07T04:55:00.497Z,13.72
2018-05-07T04:56:00.605Z,13.64
2018-05-07T04:57:00.736Z,13.72
2018-05-07T04:58:00.868Z,13.75
2018-05-07T04:59:01.007Z,13.78
2018-05-07T05:00:01.159Z,13.64
2018-05-07T05:01:01.296Z,13.46
2018-05-07T05:02:01.433Z,13.40
2018-05-07T05:03:01.569Z,13.21
2018-05-07T05:04:01.720Z,13.16
2018-05-07T05:05:01.857Z,13.08
2018-05-07T05:06:01.999Z,13.05
2018-05-07T05:07:02.135Z,12.88
2018-05-07T05:08:02.276Z,12.91
2018-05-07T05:09:02.417Z,12.88
2018-05-07T05:10:02.551Z,12.90
2018-05-07T05:11:02.689Z,12.99
2018-05-07T05:12:02.821Z,13.05
2018-05-07T05:13:02.959Z,12.84
2018-05-07T05:14:03.090Z,12.88
2018-05-07T05:15:03.223Z,12.90
2018-05-07T05:16:03.362Z,13.04
2018-05-07T05:17:03.501Z,12.83
2018-05-07T05:18:03.711Z,12.69
2018-05-07T05:19:03.768Z,12.62
2018-05-07T05:20:03.915Z,12.35
2018-05-07T05:21:04.083Z,12.44
2018-05-07T05:22:04.191Z,12.41
2018-05-07T05:23:04.329Z,12.54
2018-05-07T05:24:04.477Z,12.63
2018-05-07T05:25:04.619Z,12.76
2018-05-07T05:26:04.754Z,12.84
2018-05-07T05:27:04.891Z,12.96
2018-05-07T05:28:05.025Z,13.06
2018-05-07T05:29:05.159Z,13.06
2018-05-07T05:30:05.300Z,13.11
2018-05-07T05:31:05.438Z,13.09
2018-05-07T05:32:05.577Z,13.04
2018-05-07T05:33:05.711Z,13.13
2018-05-07T05:34:05.837Z,12.95
2018-05-07T05:35:05.970Z,13.02
2018-05-07T05:36:06.109Z,13.19
2018-05-07T05:37:06.250Z,13.19
2018-05-07T05:38:06.390Z,13.23
2018-05-07T05:39:06.526Z,13.14
2018-05-07T05:40:06.664Z,13.24
2018-05-07T05:41:06.798Z,13.32
2018-05-07T05:42:06.942Z,13.46
2018-05-07T05:43:07.077Z,13.53
2018-05-07T05:44:07.218Z,13.54
2018-05-07T05:45:07.426Z,13.68
2018-05-07T05:46:07.556Z,13.64
2018-05-07T05:47:07.573Z,13.71
2018-05-07T05:48:07.704Z,13.75
2018-05-07T05:49:07.844Z,13.82
2018-05-07T05:50:08.081Z,13.72
2018-05-07T05:51:08.120Z,13.73
2018-05-07T05:52:08.267Z,13.83
2018-05-07T05:53:08.462Z,13.91
2018-05-07T05:54:08.527Z,14.00
2018-05-07T05:55:08.667Z,13.97
2018-05-07T05:56:08.869Z,13.96
2018-05-07T05:57:08.949Z,14.09
2018-05-07T05:58:09.082Z,14.13
2018-05-07T05:59:09.230Z,14.19
2018-05-07T06:00:09.384Z,14.26
2018-05-07T06:01:09.527Z,14.30
2018-05-07T06:02:09.666Z,14.33
2018-05-07T06:03:09.802Z,14.34
2018-05-07T06:04:09.944Z,14.44
2018-05-07T06:05:10.084Z,14.49
2018-05-07T06:06:10.222Z,14.49
2018-05-07T06:07:10.361Z,14.49
2018-05-07T06:08:10.503Z,14.49
2018-05-07T06:09:10.636Z,14.53
2018-05-07T06:10:10.779Z,14.63
2018-05-07T06:11:10.912Z,14.69
2018-05-07T06:12:11.051Z,14.77
2018-05-07T06:13:11.190Z,14.79
2018-05-07T06:14:11.330Z,14.78
2018-05-07T06:15:11.474Z,14.89
2018-05-07T06:16:11.619Z,14.87
2018-05-07T06:17:11.760Z,14.86
2018-05-07T06:18:11.905Z,14.92
2018-05-07T06:19:12.047Z,14.99
2018-05-07T06:20:12.181Z,14.99
2018-05-07T06:21:12.379Z,14.97
2018-05-07T06:22:12.460Z,15.10
2018-05-07T06:23:12.606Z,15.05
2018-05-07T06:24:12.745Z,15.08
2018-05-07T06:25:12.879Z,15.17
2018-05-07T06:26:13.016Z,15.27
2018-05-07T06:27:13.218Z,15.15
2018-05-07T06:28:13.304Z,15.20
2018-05-07T06:29:13.444Z,15.20
2018-05-07T06:30:13.588Z,15.43
2018-05-07T06:31:13.728Z,15.36
2018-05-07T06:32:13.927Z,15.36
2018-05-07T06:33:13.995Z,15.36
2018-05-07T06:34:14.215Z,15.36
2018-05-07T06:35:14.277Z,15.44
2018-05-07T06:36:14.413Z,15.44
2018-05-07T06:37:14.558Z,15.47
2018-05-07T06:38:14.690Z,15.48
2018-05-07T06:39:14.829Z,15.47
2018-05-07T06:40:14.963Z,15.58
2018-05-07T06:41:15.102Z,15.56
2018-05-07T06:42:15.279Z,15.59
2018-05-07T06:43:15.372Z,15.66
2018-05-07T06:44:15.517Z,15.58
2018-05-07T06:45:15.645Z,15.65
2018-05-07T06:46:15.783Z,15.60
2018-05-07T06:47:15.923Z,15.65
2018-05-07T06:48:16.060Z,15.77
2018-05-07T06:49:16.200Z,15.77
2018-05-07T06:50:16.340Z,15.77
2018-05-07T06:51:16.477Z,15.87
2018-05-07T06:52:16.618Z,15.78
2018-05-07T06:53:16.760Z,15.84
2018-05-07T06:54:16.896Z,15.91
2018-05-07T06:55:17.034Z,15.88
2018-05-07T06:56:17.181Z,15.98
2018-05-07T06:57:17.314Z,15.98
2018-05-07T06:58:17.456Z,16.02
2018-05-07T06:59:17.611Z,16.05
2018-05-07T07:00:17.754Z,16.00
2018-05-07T07:01:17.889Z,16.05
2018-05-07T07:02:18.955Z,15.96
2018-05-07T07:03:18.216Z,16.10
2018-05-07T07:04:18.354Z,16.18
2018-05-07T07:05:18.493Z,16.17
2018-05-07T07:06:18.633Z,16.24
2018-05-07T07:07:18.766Z,16.10
2018-05-07T07:08:19.015Z,16.10
2018-05-07T07:09:19.048Z,16.28
2018-05-07T07:10:19.183Z,16.25
2018-05-07T07:11:19.320Z,16.34
2018-05-07T07:12:19.458Z,16.16
2018-05-07T07:13:19.597Z,16.34
2018-05-07T07:14:19.737Z,16.32
2018-05-07T07:15:19.871Z,16.25
2018-05-07T07:16:20.079Z,16.24
2018-05-07T07:17:20.151Z,16.40
2018-05-07T07:18:20.289Z,16.40
2018-05-07T07:19:20.432Z,16.43
2018-05-07T07:20:20.569Z,16.47
2018-05-07T07:21:20.706Z,16.57
2018-05-07T07:22:20.844Z,16.55
2018-05-07T07:23:20.981Z,16.64
2018-05-07T07:24:21.120Z,16.64
2018-05-07T07:25:21.256Z,16.76
2018-05-07T07:26:21.408Z,16.61
2018-05-07T07:27:21.554Z,16.55
2018-05-07T07:28:21.691Z,16.64
2018-05-07T07:29:21.828Z,16.57
2018-05-07T07:30:21.969Z,16.72
2018-05-07T07:31:22.103Z,16.76
2018-05-07T07:32:22.240Z,16.82
2018-05-07T07:33:22.379Z,16.84
2018-05-07T07:34:22.518Z,16.84
2018-05-07T07:35:22.654Z,16.84
2018-05-07T07:36:22.792Z,16.94
2018-05-07T07:37:22.940Z,16.95
2018-05-07T07:38:23.074Z,17.01
2018-05-07T07:39:23.265Z,17.04
2018-05-07T07:40:23.354Z,17.01
2018-05-07T07:41:23.489Z,17.02
2018-05-07T07:42:23.628Z,17.02
2018-05-07T07:43:23.782Z,17.10
2018-05-07T07:44:23.919Z,17.20
2018-05-07T07:45:24.060Z,17.16
2018-05-07T07:46:24.246Z,17.17
2018-05-07T07:47:24.389Z,17.28
2018-05-07T07:48:24.533Z,17.32
2018-05-07T07:49:24.667Z,17.32
2018-05-07T07:50:24.807Z,17.30
2018-05-07T07:51:24.947Z,17.34
2018-05-07T07:52:25.101Z,17.39
2018-05-07T07:53:25.282Z,17.34
2018-05-07T07:54:25.370Z,17.47
2018-05-07T07:55:25.526Z,17.47
2018-05-07T07:56:25.669Z,17.56
2018-05-07T07:57:25.813Z,17.50
2018-05-07T07:58:26.450Z,17.56
2018-05-07T07:59:26.081Z,17.63
2018-05-07T08:00:26.226Z,17.65
2018-05-07T08:01:26.371Z,17.59
2018-05-07T08:02:26.501Z,17.62
2018-05-07T08:03:26.645Z,17.65
2018-05-07T08:04:26.787Z,17.76
2018-05-07T08:05:26.927Z,17.73
2018-05-07T08:06:27.073Z,17.75
2018-05-07T08:07:27.212Z,17.78
2018-05-07T08:08:27.349Z,17.97
2018-05-07T08:09:27.488Z,17.96
2018-05-07T08:10:27.636Z,17.88
2018-05-07T08:11:27.775Z,18.08
2018-05-07T08:12:28.019Z,18.11
2018-05-07T08:13:28.059Z,18.09
2018-05-07T08:14:28.201Z,18.11
2018-05-07T08:15:28.341Z,18.03
2018-05-07T08:16:28.480Z,18.15
2018-05-07T08:17:28.621Z,18.23
2018-05-07T08:18:28.783Z,18.20
2018-05-07T08:19:28.906Z,18.28
2018-05-07T08:20:29.045Z,18.26
2018-05-07T08:21:29.193Z,18.34
2018-05-07T08:22:29.335Z,18.41
2018-05-07T08:23:29.471Z,18.33
2018-05-07T08:24:29.611Z,18.48
2018-05-07T08:25:29.770Z,18.49
2018-05-07T08:26:29.911Z,18.60
2018-05-07T08:27:30.046Z,18.58
2018-05-07T08:28:30.191Z,18.57
2018-05-07T08:29:30.338Z,18.64
2018-05-07T08:30:30.559Z,18.67
2018-05-07T08:31:30.617Z,18.70
2018-05-07T08:32:30.763Z,18.67
2018-05-07T08:33:30.897Z,18.76
2018-05-07T08:34:31.038Z,18.81
2018-05-07T08:35:31.182Z,18.85
2018-05-07T08:36:31.323Z,18.89
2018-05-07T08:37:31.457Z,18.83
2018-05-07T08:38:31.598Z,18.94
2018-05-07T08:39:31.739Z,18.96
2018-05-07T08:40:31.875Z,19.05
2018-05-07T08:41:32.025Z,19.01
2018-05-07T08:42:32.181Z,19.07
2018-05-07T08:43:32.322Z,18.98
2018-05-07T08:44:32.462Z,19.17
2018-05-07T08:45:32.608Z,19.17
2018-05-07T08:46:32.745Z,19.17
2018-05-07T08:47:32.884Z,19.20
2018-05-07T08:48:33.024Z,19.30
2018-05-07T08:49:33.167Z,19.30
2018-05-07T08:50:33.313Z,19.26
2018-05-07T08:51:33.469Z,19.17
2018-05-07T08:52:33.594Z,19.30
2018-05-07T08:53:33.739Z,19.34
2018-05-07T08:54:33.957Z,19.32
2018-05-07T08:55:33.982Z,19.38
2018-05-07T08:56:34.117Z,19.37
2018-05-07T08:57:34.254Z,19.44
2018-05-07T08:58:34.391Z,19.39
2018-05-07T08:59:34.545Z,19.41
2018-05-07T09:00:34.810Z,19.34
2018-05-07T09:01:34.813Z,19.45
2018-05-07T09:02:34.953Z,19.41
2018-05-07T09:03:35.090Z,19.44
2018-05-07T09:04:35.227Z,19.38
2018-05-07T09:05:35.373Z,19.47
2018-05-07T09:06:35.514Z,19.52
2018-05-07T09:07:35.652Z,19.60
2018-05-07T09:08:35.790Z,19.59
2018-05-07T09:09:35.937Z,19.56
2018-05-07T09:10:36.082Z,19.54
2018-05-07T09:11:36.217Z,19.56
2018-05-07T09:12:36.359Z,19.63
2018-05-07T09:13:36.551Z,19.52
2018-05-07T09:14:36.643Z,19.77
2018-05-07T09:15:36.785Z,19.63
2018-05-07T09:16:36.926Z,19.72
2018-05-07T09:17:37.067Z,19.70
2018-05-07T09:18:37.208Z,19.79
2018-05-07T09:19:37.346Z,19.79
2018-05-07T09:20:37.483Z,19.79
2018-05-07T09:21:37.633Z,19.87
2018-05-07T09:22:37.779Z,19.92
2018-05-07T09:23:37.926Z,19.90
2018-05-07T09:24:38.064Z,19.90
2018-05-07T09:25:38.207Z,19.82
2018-05-07T09:26:38.347Z,19.87
2018-05-07T09:27:38.481Z,19.97
2018-05-07T09:28:38.620Z,19.99
2018-05-07T09:29:38.761Z,20.00
2018-05-07T09:30:38.903Z,19.94
2018-05-07T09:31:39.099Z,19.99
2018-05-07T09:32:39.181Z,20.04
2018-05-07T09:33:39.320Z,20.07
2018-05-07T09:34:39.464Z,20.07
2018-05-07T09:35:40.472Z,20.07
2018-05-07T09:36:39.758Z,20.05
2018-05-07T09:37:39.897Z,20.17
2018-05-07T09:38:40.045Z,20.25
2018-05-07T09:39:40.178Z,20.18
2018-05-07T09:40:40.316Z,20.23
2018-05-07T09:41:40.460Z,20.26
2018-05-07T09:42:40.596Z,20.25
2018-05-07T09:43:40.739Z,20.30
2018-05-07T09:44:40.887Z,20.39
2018-05-07T09:45:41.017Z,20.37
2018-05-07T09:46:41.164Z,20.34
2018-05-07T09:47:41.311Z,20.39
2018-05-07T09:48:41.451Z,20.37
2018-05-07T09:49:41.588Z,20.34
2018-05-07T09:50:41.734Z,20.46
2018-05-07T09:51:41.872Z,20.52
2018-05-07T09:52:42.016Z,20.60
2018-05-07T09:53:42.157Z,20.61
2018-05-07T09:54:42.291Z,20.60
2018-05-07T09:55:42.481Z,20.67
2018-05-07T09:56:42.585Z,20.73
2018-05-07T09:57:42.717Z,20.58
2018-05-07T09:58:42.851Z,20.71
2018-05-07T09:59:42.992Z,20.68
2018-05-07T10:00:43.132Z,20.77
2018-05-07T10:01:43.281Z,20.73
2018-05-07T10:02:43.412Z,20.86
2018-05-07T10:03:43.565Z,20.74
2018-05-07T10:04:43.705Z,20.92
2018-05-07T10:05:43.852Z,20.85
2018-05-07T10:06:43.990Z,20.88
2018-05-07T10:07:44.134Z,20.95
2018-05-07T10:08:44.280Z,20.89
2018-05-07T10:09:44.421Z,20.85
2018-05-07T10:10:44.554Z,20.92
2018-05-07T10:11:44.692Z,21.00
2018-05-07T10:12:44.829Z,20.88
2018-05-07T10:13:44.974Z,20.97
2018-05-07T10:14:45.103Z,21.00
2018-05-07T10:15:45.255Z,21.04
2018-05-07T10:16:45.396Z,20.92
2018-05-07T10:17:45.534Z,21.03
2018-05-07T10:18:45.685Z,21.08
2018-05-07T10:19:45.841Z,21.13
2018-05-07T10:20:45.977Z,21.16
2018-05-07T10:21:46.115Z,21.23
2018-05-07T10:22:46.253Z,21.25
2018-05-07T10:23:46.397Z,21.30
2018-05-07T10:24:46.538Z,21.32
2018-05-07T10:25:46.676Z,21.35
2018-05-07T10:26:46.814Z,21.26
2018-05-07T10:27:46.967Z,21.29
2018-05-07T10:28:47.099Z,21.37
2018-05-07T10:29:47.259Z,21.45
2018-05-07T10:30:47.383Z,21.44
2018-05-07T10:31:47.536Z,21.34
2018-05-07T10:32:47.680Z,21.55
2018-05-07T10:33:47.819Z,21.48
2018-05-07T10:34:47.978Z,21.51
2018-05-07T10:35:48.117Z,21.50
2018-05-07T10:36:48.254Z,21.63
2018-05-07T10:37:48.408Z,21.65
2018-05-07T10:38:48.559Z,21.63
2018-05-07T10:39:48.702Z,21.77
2018-05-07T10:40:48.852Z,21.80
2018-05-07T10:41:48.993Z,21.85
2018-05-07T10:42:49.226Z,21.90
2018-05-07T10:43:49.269Z,21.96
2018-05-07T10:44:49.420Z,21.77
2018-05-07T10:45:49.561Z,21.84
2018-05-07T10:46:49.715Z,21.85
2018-05-07T10:47:49.854Z,21.96
2018-05-07T10:48:49.989Z,22.01
2018-05-07T10:49:50.995Z,22.00
2018-05-07T10:50:50.281Z,22.21
2018-05-07T10:51:50.419Z,22.23
2018-05-07T10:52:50.557Z,22.25
2018-05-07T10:53:50.701Z,22.49
2018-05-07T10:54:50.844Z,22.49
2018-05-07T10:55:50.985Z,22.58
2018-05-07T10:56:51.127Z,22.66
2018-05-07T10:57:51.267Z,22.71
2018-05-07T10:58:51.418Z,22.71
2018-05-07T10:59:51.556Z,22.76
2018-05-07T11:00:51.702Z,22.81
2018-05-07T11:01:51.844Z,22.78
2018-05-07T11:02:51.989Z,22.64
2018-05-07T11:03:52.136Z,22.51
2018-05-07T11:04:52.274Z,22.64
2018-05-07T11:05:52.422Z,22.61
2018-05-07T11:06:52.559Z,22.62
2018-05-07T11:07:52.701Z,22.67
2018-05-07T11:08:52.844Z,22.68
2018-05-07T11:09:52.987Z,22.64
2018-05-07T11:10:53.129Z,22.74
2018-05-07T11:11:53.271Z,22.70
2018-05-07T11:12:53.428Z,22.80
2018-05-07T11:13:53.581Z,22.77
2018-05-07T11:14:53.723Z,22.88
2018-05-07T11:15:53.870Z,22.86
2018-05-07T11:16:54.002Z,22.85
2018-05-07T11:17:54.150Z,22.92
2018-05-07T11:18:54.296Z,22.98
2018-05-07T11:19:54.438Z,23.01
2018-05-07T11:20:54.595Z,22.99
2018-05-07T11:21:54.735Z,23.01
2018-05-07T11:22:54.882Z,23.08
2018-05-07T11:23:55.027Z,23.13
2018-05-07T11:24:55.167Z,23.14
2018-05-07T11:25:55.308Z,23.07
2018-05-07T11:26:55.455Z,23.15
2018-05-07T11:27:55.592Z,23.11
2018-05-07T11:28:55.736Z,23.15
2018-05-07T11:29:55.883Z,23.17
2018-05-07T11:30:56.025Z,23.31
2018-05-07T11:31:56.149Z,23.28
2018-05-07T11:32:56.320Z,23.41
2018-05-07T11:33:56.461Z,23.39
2018-05-07T11:34:56.607Z,23.51
2018-05-07T11:35:56.981Z,23.51
2018-05-07T11:36:56.853Z,23.54
2018-05-07T11:37:57.008Z,23.63
2018-05-07T11:38:57.140Z,23.67
2018-05-07T11:39:57.284Z,23.66
2018-05-07T11:40:57.428Z,23.59
2018-05-07T11:41:57.574Z,23.73
2018-05-07T11:42:57.771Z,23.66
2018-05-07T11:43:57.903Z,23.64
2018-05-07T11:44:58.045Z,23.82
2018-05-07T11:45:58.193Z,23.81
2018-05-07T11:46:58.336Z,23.96
2018-05-07T11:47:58.485Z,23.97
2018-05-07T11:48:58.627Z,23.97
2018-05-07T11:49:58.773Z,23.91
2018-05-07T11:50:58.915Z,23.98
2018-05-07T11:51:59.055Z,24.03
2018-05-07T11:52:59.201Z,24.16
2018-05-07T11:53:59.355Z,24.22
2018-05-07T11:54:59.490Z,24.21
2018-05-07T11:55:59.641Z,24.18
2018-05-07T11:56:59.790Z,24.18
2018-05-07T11:57:59.950Z,24.36
2018-05-07T11:59:00.090Z,24.26
2018-05-07T12:00:00.231Z,24.31
2018-05-07T12:01:00.382Z,24.34
2018-05-07T12:02:00.538Z,24.43
2018-05-07T12:03:00.684Z,24.53
2018-05-07T12:04:00.828Z,24.55
2018-05-07T12:05:00.973Z,24.56
2018-05-07T12:06:01.127Z,24.60
2018-05-07T12:07:01.277Z,24.70
2018-05-07T12:08:01.417Z,24.75
2018-05-07T12:09:01.557Z,24.75
2018-05-07T12:10:01.725Z,24.84
2018-05-07T12:11:01.868Z,24.84
2018-05-07T12:12:02.007Z,24.84
2018-05-07T12:13:02.144Z,24.90
2018-05-07T12:14:02.305Z,25.01
2018-05-07T12:15:02.445Z,24.99
2018-05-07T12:16:02.670Z,25.09
2018-05-07T12:17:02.730Z,25.06
2018-05-07T12:18:02.871Z,25.09
2018-05-07T12:19:03.015Z,25.12
2018-05-07T12:20:03.158Z,25.12
2018-05-07T12:21:03.315Z,25.26
2018-05-07T12:22:03.448Z,25.18
2018-05-07T12:23:03.604Z,25.14
2018-05-07T12:24:03.749Z,25.16
2018-05-07T12:25:03.910Z,25.18
2018-05-07T12:26:04.040Z,25.27
2018-05-07T12:27:04.200Z,25.33
2018-05-07T12:28:04.354Z,25.26
2018-05-07T12:29:04.497Z,25.18
2018-05-07T12:30:04.653Z,25.30
2018-05-07T12:31:04.790Z,25.40
2018-05-07T12:32:04.935Z,25.36
2018-05-07T12:33:05.090Z,25.46
2018-05-07T12:34:05.219Z,25.48
2018-05-07T12:35:05.378Z,25.51
2018-05-07T12:36:05.529Z,25.52
2018-05-07T12:37:05.687Z,25.51
2018-05-07T12:38:05.838Z,25.55
2018-05-07T12:39:05.978Z,25.49
2018-05-07T12:40:06.127Z,25.46
2018-05-07T12:41:06.266Z,25.66
2018-05-07T12:42:06.425Z,25.64
2018-05-07T12:43:06.570Z,25.61
2018-05-07T12:44:06.712Z,25.55
2018-05-07T12:45:06.852Z,25.67
2018-05-07T12:46:06.987Z,25.64
2018-05-07T12:47:07.132Z,25.67
2018-05-07T12:48:07.279Z,25.61
2018-05-07T12:49:07.423Z,25.67
2018-05-07T12:50:07.574Z,25.64
2018-05-07T12:51:07.720Z,25.74
2018-05-07T12:52:07.865Z,25.68
2018-05-07T12:53:08.009Z,25.67
2018-05-07T12:54:08.155Z,25.74